createdAt,value
2022-11-20T00:00:18.841Z,22.55
2022-11-20T00:05:18.163Z,26.15
2022-11-20T00:10:17.086Z,28.98
2022-11-20T00:15:16.235Z,27.00
2022-11-20T00:20:16.065Z,29.30
2022-11-20T00:25:15.650Z,27.30
2022-11-20T00:30:15.373Z,29.33
2022-11-20T00:35:14.383Z,25.35
2022-11-20T00:40:13.684Z,20.92
2022-11-20T00:45:12.702Z,19.10
2022-11-20T00:50:11.514Z,16.88
2022-11-20T00:55:10.514Z,16.60
2022-11-20T01:00:09.984Z,24.48
2022-11-20T01:05:11.391Z,18.48
2022-11-20T01:10:10.387Z,18.42
2022-11-20T01:15:09.958Z,19.85
2022-11-20T01:20:09.443Z,22.90
2022-11-20T01:25:08.499Z,16.48
2022-11-20T01:30:08.014Z,17.33
2022-11-20T01:35:07.013Z,16.83
2022-11-20T01:40:06.618Z,13.88
2022-11-20T01:46:03.913Z,15.93
2022-11-20T01:51:05.117Z,16.80
2022-11-20T01:56:09.279Z,16.90
2022-11-20T02:06:56.621Z,19.00
2022-11-20T02:11:56.467Z,19.10
2022-11-20T02:16:55.975Z,14.90
2022-11-20T02:22:20.882Z,17.45
2022-11-20T02:27:19.917Z,10.50
2022-11-20T02:32:23.490Z,11.07
2022-11-20T02:37:22.958Z,12.95
2022-11-20T02:42:21.694Z,11.45
2022-11-20T02:47:20.793Z,12.90
2022-11-20T02:52:19.545Z,12.43
2022-11-20T02:57:18.627Z,13.35
2022-11-20T03:02:17.418Z,13.93
2022-11-20T03:07:16.542Z,11.75
2022-11-20T03:12:15.906Z,10.18
2022-11-20T03:17:14.801Z,12.38
2022-11-20T03:22:13.603Z,9.75
2022-11-20T03:27:12.491Z,12.05
2022-11-20T03:32:11.249Z,11.77
2022-11-20T03:37:10.528Z,10.98
2022-11-20T03:42:30.298Z,11.23
2022-11-20T03:47:29.555Z,10.20
2022-11-20T03:52:28.315Z,10.30
2022-11-20T03:57:27.108Z,10.18
2022-11-20T04:02:25.890Z,10.40
2022-11-20T04:07:24.762Z,10.68
2022-11-20T04:12:23.572Z,12.68
2022-11-20T04:17:22.432Z,10.23
2022-11-20T04:22:21.237Z,10.32
2022-11-20T04:27:20.168Z,12.05
2022-11-20T04:32:18.885Z,10.75
2022-11-20T04:37:17.716Z,12.23
2022-11-20T04:42:31.550Z,12.80
2022-11-20T04:47:30.485Z,13.63
2022-11-20T04:52:29.237Z,15.02
2022-11-20T04:57:28.007Z,11.35
2022-11-20T05:02:26.774Z,14.48
2022-11-20T05:07:25.629Z,11.88
2022-11-20T05:12:24.651Z,12.73
2022-11-20T05:17:23.528Z,10.60
2022-11-20T05:22:22.274Z,12.02
2022-11-20T05:27:21.524Z,9.75
2022-11-20T05:32:20.260Z,11.93
2022-11-20T05:37:19.081Z,11.55
2022-11-20T05:42:33.078Z,10.30
2022-11-20T05:47:35.290Z,8.88
2022-11-20T05:52:34.051Z,8.35
2022-11-20T05:57:33.148Z,7.88
2022-11-20T06:02:36.016Z,9.15
2022-11-20T06:07:34.908Z,6.00
2022-11-20T06:12:34.278Z,11.63
2022-11-20T06:17:33.273Z,8.63
2022-11-20T06:22:33.205Z,11.90
2022-11-20T06:27:32.026Z,8.07
2022-11-20T06:32:30.788Z,8.18
2022-11-20T06:37:29.582Z,9.35
2022-11-20T06:42:28.304Z,10.10
2022-11-20T06:47:27.116Z,14.25
2022-11-20T06:52:25.860Z,11.90
2022-11-20T06:57:24.767Z,11.95
2022-11-20T07:02:23.521Z,14.18
2022-11-20T07:07:22.398Z,12.25
2022-11-20T07:12:21.700Z,12.55
2022-11-20T07:17:20.544Z,12.70
2022-11-20T07:22:19.452Z,16.92
2022-11-20T07:27:18.329Z,15.10
2022-11-20T07:32:17.227Z,15.13
2022-11-20T07:37:16.928Z,14.45
2022-11-20T07:42:15.725Z,14.45
2022-11-20T07:47:14.706Z,14.82
2022-11-20T07:52:13.670Z,18.17
2022-11-20T07:57:12.514Z,18.75
2022-11-20T08:02:12.239Z,19.52
2022-11-20T08:07:11.070Z,18.50
2022-11-20T08:12:38.014Z,17.83
2022-11-20T08:17:36.907Z,17.92
2022-11-20T08:22:35.888Z,19.50
2022-11-20T08:27:34.893Z,24.38
2022-11-20T08:32:36.782Z,25.38
2022-11-20T08:37:35.680Z,24.33
2022-11-20T08:42:34.411Z,24.48
2022-11-20T08:47:33.355Z,23.40
2022-11-20T08:52:33.469Z,23.95
2022-11-20T08:57:38.585Z,26.10
2022-11-20T09:02:37.574Z,26.60
2022-11-20T09:07:36.366Z,27.45
2022-11-20T09:12:35.221Z,24.33
2022-11-20T09:17:34.037Z,22.45
2022-11-20T09:22:33.806Z,18.70
2022-11-20T09:27:32.619Z,20.08
2022-11-20T09:32:31.535Z,44.13
2022-11-20T09:37:30.237Z,19.25
2022-11-20T09:42:34.881Z,19.05
2022-11-20T09:47:51.732Z,20.42
2022-11-20T09:52:56.879Z,23.25
2022-11-20T09:57:57.301Z,18.27
2022-11-20T10:03:06.842Z,21.58
2022-11-20T10:08:25.777Z,21.38
2022-11-20T10:13:59.938Z,20.10
2022-11-20T10:19:18.873Z,22.85
2022-11-20T10:24:45.326Z,20.58
2022-11-20T10:29:53.872Z,15.68
2022-11-20T10:35:02.645Z,16.13
2022-11-20T10:40:44.792Z,15.88
2022-11-20T10:45:56.248Z,16.95
2022-11-20T10:51:19.613Z,15.30
2022-11-20T10:56:30.977Z,16.48
2022-11-20T11:01:30.028Z,18.70
2022-11-20T11:06:48.066Z,16.13
2022-11-20T11:11:46.907Z,16.20
2022-11-20T11:16:54.297Z,16.42
2022-11-20T11:21:57.530Z,16.30
2022-11-20T11:27:05.531Z,14.88
2022-11-20T11:32:06.501Z,15.15
2022-11-20T11:37:11.431Z,12.77
2022-11-20T11:42:17.095Z,11.93
2022-11-20T11:47:26.698Z,12.55
2022-11-20T11:52:26.822Z,11.48
2022-11-20T11:57:55.694Z,9.00
2022-11-20T12:02:58.638Z,7.75
2022-11-20T12:08:12.854Z,9.38
2022-11-20T12:13:12.045Z,10.18
2022-11-20T12:18:22.250Z,10.55
2022-11-20T12:23:53.584Z,9.60
2022-11-20T12:29:28.535Z,8.45
2022-11-20T12:34:36.350Z,9.88
2022-11-20T12:39:43.568Z,11.43
2022-11-20T12:45:16.304Z,8.77
2022-11-20T12:50:30.634Z,12.27
2022-11-20T12:55:43.882Z,12.52
2022-11-20T13:00:56.722Z,11.98
2022-11-20T13:06:18.464Z,13.10
2022-11-20T13:11:20.087Z,12.48
2022-11-20T13:16:28.470Z,11.18
2022-11-20T13:21:47.295Z,13.05
2022-11-20T13:26:46.917Z,11.93
2022-11-20T13:31:48.866Z,13.65
2022-11-20T13:36:52.267Z,12.55
2022-11-20T13:42:00.586Z,12.27
2022-11-20T13:46:59.480Z,9.90
2022-11-20T13:52:07.034Z,11.35
2022-11-20T13:57:24.711Z,11.55
2022-11-20T14:02:26.493Z,11.07
2022-11-20T14:07:33.020Z,9.70
2022-11-20T14:12:34.048Z,9.25
2022-11-20T14:17:35.508Z,7.65
2022-11-20T14:22:34.445Z,8.23
2022-11-20T14:27:42.131Z,8.15
2022-11-20T14:32:43.113Z,8.35
2022-11-20T14:37:42.390Z,7.68
2022-11-20T14:42:44.869Z,8.98
2022-11-20T14:47:44.636Z,10.38
2022-11-20T14:52:52.153Z,9.85
2022-11-20T14:57:57.736Z,11.00
2022-11-20T15:02:57.028Z,13.05
2022-11-20T15:08:09.214Z,10.63
2022-11-20T15:13:27.454Z,9.55
2022-11-20T15:18:39.345Z,10.50
2022-11-20T15:23:38.230Z,9.23
2022-11-20T15:28:42.316Z,11.48
2022-11-20T15:33:41.213Z,11.15
2022-11-20T15:38:39.969Z,12.75
2022-11-20T15:43:39.652Z,15.27
2022-11-20T15:48:48.269Z,13.80
2022-11-20T15:53:47.543Z,14.23
2022-11-20T15:58:46.411Z,13.20
2022-11-20T16:03:45.829Z,13.50
2022-11-20T16:08:44.772Z,11.60
2022-11-20T16:14:02.080Z,13.65
2022-11-20T16:19:01.326Z,14.52
2022-11-20T16:24:02.063Z,13.27
2022-11-20T16:29:03.538Z,17.67
2022-11-20T16:34:11.959Z,14.57
2022-11-20T16:39:17.790Z,19.23
2022-11-20T16:44:19.383Z,17.85
2022-11-20T16:49:18.503Z,19.73
2022-11-20T16:54:21.177Z,16.85
2022-11-20T16:59:20.555Z,18.60
2022-11-20T17:04:19.554Z,17.30
2022-11-20T17:09:18.434Z,14.05
2022-11-20T17:14:17.261Z,16.90
2022-11-20T17:19:16.086Z,16.83
2022-11-20T17:24:16.241Z,17.42
2022-11-20T17:29:17.547Z,18.40
2022-11-20T17:34:16.948Z,18.02
2022-11-20T17:39:17.189Z,18.25
2022-11-20T17:44:15.999Z,17.45
2022-11-20T17:49:16.961Z,17.83
2022-11-20T17:54:17.750Z,16.92
2022-11-20T17:59:18.629Z,18.15
2022-11-20T18:04:17.627Z,21.00
2022-11-20T18:09:16.918Z,15.52
2022-11-20T18:14:32.871Z,20.65
2022-11-20T18:19:42.567Z,15.68
2022-11-20T18:24:50.338Z,15.95
2022-11-20T18:29:51.935Z,18.73
2022-11-20T18:34:51.348Z,22.98
2022-11-20T18:39:50.520Z,21.92
2022-11-20T18:44:53.677Z,24.23
2022-11-20T18:49:54.574Z,24.23
2022-11-20T19:00:21.814Z,24.42
2022-11-20T19:05:21.063Z,26.70
2022-11-20T19:10:20.475Z,27.40
2022-11-20T19:15:19.423Z,22.75
2022-11-20T19:20:19.036Z,25.35
2022-11-20T19:25:17.757Z,26.98
2022-11-20T19:30:17.376Z,26.42
2022-11-20T19:35:16.201Z,24.35
2022-11-20T19:40:14.902Z,27.08
2022-11-20T19:45:13.857Z,26.08
2022-11-20T19:50:13.090Z,26.10
2022-11-20T19:55:11.949Z,27.15
2022-11-20T20:06:38.929Z,23.85
2022-11-20T20:11:38.676Z,26.92
2022-11-20T20:16:37.596Z,24.65
2022-11-20T20:21:36.501Z,28.40
2022-11-20T20:26:35.174Z,25.25
2022-11-20T20:36:31.410Z,22.63
2022-11-20T20:41:31.038Z,28.13
2022-11-20T20:46:29.986Z,26.25
2022-11-20T20:51:28.781Z,26.92
2022-11-20T20:56:28.066Z,23.13
2022-11-20T21:01:28.716Z,28.83
2022-11-20T21:06:27.835Z,19.80
2022-11-20T21:11:26.576Z,26.55
2022-11-20T21:16:25.399Z,30.13
2022-11-20T21:21:42.807Z,27.20
2022-11-20T21:26:41.572Z,29.80
2022-11-20T21:31:40.270Z,25.35
2022-11-20T21:36:39.157Z,26.17
2022-11-20T21:41:38.784Z,26.25
2022-11-20T21:46:39.947Z,28.58
2022-11-20T21:51:38.952Z,24.75
2022-11-20T21:56:37.774Z,30.95
2022-11-20T22:01:36.615Z,29.98
2022-11-20T22:06:35.456Z,34.30
2022-11-20T22:11:34.145Z,30.92
2022-11-20T22:16:34.486Z,25.23
2022-11-20T22:21:34.328Z,30.25
2022-11-20T22:26:39.870Z,31.83
2022-11-20T22:31:39.192Z,24.23
2022-11-20T22:36:39.477Z,29.95
2022-11-20T22:41:38.357Z,26.65
2022-11-20T22:46:38.442Z,30.17
2022-11-20T22:51:39.603Z,26.98
2022-11-20T22:56:38.617Z,32.38
2022-11-20T23:01:37.935Z,28.30
2022-11-20T23:06:37.107Z,32.58
2022-11-20T23:11:36.417Z,34.00
2022-11-20T23:16:35.617Z,35.35
2022-11-20T23:21:37.241Z,36.97
2022-11-20T23:26:38.523Z,37.80
2022-11-20T23:31:37.299Z,36.70
2022-11-20T23:36:36.784Z,38.50
2022-11-20T23:41:35.547Z,38.13
2022-11-20T23:46:34.293Z,38.60
2022-11-20T23:51:33.014Z,38.95
2022-11-20T23:56:31.756Z,40.80
